Anthem Of The Seas — C6BI7 — position and weather

sailwx.info

Track history (hours):
 
Tides and Currents Weather Stations Pressure Air Temp Water Temp Dewpoint Dewpoint Depression Visibility Wind Speed Wind Dir Waves Ship Positions

Anthem Of The Seas

Last reported at 2017-Jun-27 20:58 UTC. Time now 2017-Jun-27 22:40 UTC.
Position N 42°10' W 068°36'.

Length 348 m; draft 8.8 m.

Type: Passenger vessel. MMSI: 311000274.

Date/timePositionNaut miles runAvg speedWind from/ knotsBaromVisibWave heightAir tempDewpointWater temp
2017-Jun-27 20:58N 42°10' W 068°36'6 9.9
2017-Jun-27 20:24N 42°04' W 068°37'5 9.9
2017-Jun-27 19:51N 41°59' W 068°38'9410.9
2017-Jun-27 11:18N 40°27' W 068°60'11417.1
2017-Jun-27 04:37N 40°23' W 071°30'717.5
2017-Jun-27 04:14N 40°24' W 071°39'417.5
2017-Jun-27 04:01N 40°24' W 071°44'1517.7
2017-Jun-27 03:10N 40°23' W 072°03'2316.4
2017-Jun-27 01:45N 40°22' W 072°33'716.9
2017-Jun-27 01:21N 40°22' W 072°42'616.9
2017-Jun-27 00:59N 40°22' W 072°51'3416.3
2017-Jun-26 22:54N 40°25' W 073°35'511.4
2017-Jun-26 22:29N 40°26' W 073°41'612.6
2017-Jun-26 21:59N 40°27' W 073°49'714.4
2017-Jun-26 21:31N 40°30' W 073°57'714.7
2017-Jun-26 21:00N 40°36' W 074°03'510.0
2017-Jun-26 20:31N 40°41' W 074°02'2 4.2
2017-Jun-26 20:00N 40°40' W 074°04'0 0.1
2017-Jun-26 19:29N 40°40' W 074°04'0 0.0
2017-Jun-26 18:59N 40°40' W 074°04'0 0.0
2017-Jun-26 18:30N 40°40' W 074°04'0 0.0
2017-Jun-26 17:59N 40°40' W 074°04'0 0.0
2017-Jun-26 17:29N 40°40' W 074°04'0 0.0
2017-Jun-26 16:59N 40°40' W 074°04'0 0.0
2017-Jun-26 16:29N 40°40' W 074°04'0 0.0
2017-Jun-26 15:59N 40°40' W 074°04'0 0.0
2017-Jun-26 15:29N 40°40' W 074°04'0 0.0
2017-Jun-26 15:00N 40°40' W 074°04'0 0.0
2017-Jun-26 13:59N 40°40' W 074°04'0 0.0
2017-Jun-26 13:29N 40°40' W 074°04'0 0.0
2017-Jun-26 12:59N 40°40' W 074°04'0 0.0
2017-Jun-26 12:29N 40°40' W 074°04'0 0.0
2017-Jun-26 11:59N 40°40' W 074°04'0 0.0
2017-Jun-26 11:29N 40°40' W 074°04'0 0.0
2017-Jun-26 11:00N 40°40' W 074°04'1 2.7
2017-Jun-26 10:30N 40°39' W 074°03'713.6
2017-Jun-26 10:01N 40°32' W 074°01'815.3
2017-Jun-26 09:30N 40°28' W 073°52'611.4
2017-Jun-26 09:00N 40°25' W 073°46'5218.1
2017-Jun-26 06:07N 39°53' W 072°53'1716.8
2017-Jun-26 05:06N 39°40' W 072°37'216.8
2017-Jun-26 04:58N 39°39' W 072°35'817.2
2017-Jun-26 04:30N 39°33' W 072°28'917.5
2017-Jun-26 04:00N 39°26' W 072°21'1017.5
2017-Jun-26 03:25N 39°19' W 072°12'717.9
2017-Jun-26 03:01N 39°13' W 072°06'1018.2
2017-Jun-26 02:29N 39°06' W 071°57'1018.3
2017-Jun-26 01:56N 38°59' W 071°49'918.4
2017-Jun-26 01:27N 38°52' W 071°41'  
2017-Jun-22 23:49N 39°54' W 073°12'719.8
2017-Jun-22 23:29N 39°59' W 073°18'1119.6
2017-Jun-22 22:56N 40°07' W 073°27'919.3
2017-Jun-22 22:28N 40°14' W 073°35'918.6
2017-Jun-22 22:00N 40°21' W 073°42'815.4
2017-Jun-22 21:30N 40°26' W 073°50'714.3
2017-Jun-22 21:01N 40°30' W 073°57'11 1.3
2017-Jun-22 12:39N 40°40' W 074°04'0 0.0
2017-Jun-22 12:30N 40°40' W 074°04'0 0.0
2017-Jun-22 12:00N 40°40' W 074°04'0 0.0
2017-Jun-22 11:30N 40°40' W 074°04'0 0.0
2017-Jun-22 11:00N 40°40' W 074°04'1 1.6
2017-Jun-22 10:31N 40°39' W 074°03'611.5
2017-Jun-22 10:00N 40°34' W 074°02'714.8
2017-Jun-22 09:31N 40°29' W 073°54'613.0
2017-Jun-22 09:01N 40°26' W 073°47'815.7
2017-Jun-22 08:30N 40°21' W 073°38'918.1
2017-Jun-22 08:01N 40°16' W 073°29'918.0
2017-Jun-22 07:29N 40°10' W 073°19'917.9
2017-Jun-22 07:00N 40°05' W 073°10'917.9
2017-Jun-22 06:30N 39°59' W 073°02'  
2017-Jun-17 21:29N 40°26' W 073°48'713.9
2017-Jun-17 21:00N 40°30' W 073°56'  
Track history (hours):
 
Tides and Currents Weather Stations Pressure Air Temp Water Temp Dewpoint Dewpoint Depression Visibility Wind Speed Wind Dir Waves Ship Positions

Anthem Of The Seas

Last reported at 2017-Jun-27 20:58 UTC. Time now 2017-Jun-27 22:40 UTC.
Position N 42°10' W 068°36'.

Length 348 m; draft 8.8 m.

Type: Passenger vessel. MMSI: 311000274.

Date/timePositionNaut miles runAvg speedWind from/ knotsBaromVisibWave heightAir tempDewpointWater temp
2017-Jun-27 20:58N 42°10' W 068°36'6 9.9
2017-Jun-27 20:24N 42°04' W 068°37'5 9.9
2017-Jun-27 19:51N 41°59' W 068°38'9410.9
2017-Jun-27 11:18N 40°27' W 068°60'11417.1
2017-Jun-27 04:37N 40°23' W 071°30'717.5
2017-Jun-27 04:14N 40°24' W 071°39'417.5
2017-Jun-27 04:01N 40°24' W 071°44'1517.7
2017-Jun-27 03:10N 40°23' W 072°03'2316.4
2017-Jun-27 01:45N 40°22' W 072°33'716.9
2017-Jun-27 01:21N 40°22' W 072°42'616.9
2017-Jun-27 00:59N 40°22' W 072°51'3416.3
2017-Jun-26 22:54N 40°25' W 073°35'511.4
2017-Jun-26 22:29N 40°26' W 073°41'612.6
2017-Jun-26 21:59N 40°27' W 073°49'714.4
2017-Jun-26 21:31N 40°30' W 073°57'714.7
2017-Jun-26 21:00N 40°36' W 074°03'510.0
2017-Jun-26 20:31N 40°41' W 074°02'2 4.2
2017-Jun-26 20:00N 40°40' W 074°04'0 0.1
2017-Jun-26 19:29N 40°40' W 074°04'0 0.0
2017-Jun-26 18:59N 40°40' W 074°04'0 0.0
2017-Jun-26 18:30N 40°40' W 074°04'0 0.0
2017-Jun-26 17:59N 40°40' W 074°04'0 0.0
2017-Jun-26 17:29N 40°40' W 074°04'0 0.0
2017-Jun-26 16:59N 40°40' W 074°04'0 0.0
2017-Jun-26 16:29N 40°40' W 074°04'0 0.0
2017-Jun-26 15:59N 40°40' W 074°04'0 0.0
2017-Jun-26 15:29N 40°40' W 074°04'0 0.0
2017-Jun-26 15:00N 40°40' W 074°04'0 0.0
2017-Jun-26 13:59N 40°40' W 074°04'0 0.0
2017-Jun-26 13:29N 40°40' W 074°04'0 0.0
2017-Jun-26 12:59N 40°40' W 074°04'0 0.0
2017-Jun-26 12:29N 40°40' W 074°04'0 0.0
2017-Jun-26 11:59N 40°40' W 074°04'0 0.0
2017-Jun-26 11:29N 40°40' W 074°04'0 0.0
2017-Jun-26 11:00N 40°40' W 074°04'1 2.7
2017-Jun-26 10:30N 40°39' W 074°03'713.6
2017-Jun-26 10:01N 40°32' W 074°01'815.3
2017-Jun-26 09:30N 40°28' W 073°52'611.4
2017-Jun-26 09:00N 40°25' W 073°46'5218.1
2017-Jun-26 06:07N 39°53' W 072°53'1716.8
2017-Jun-26 05:06N 39°40' W 072°37'216.8
2017-Jun-26 04:58N 39°39' W 072°35'817.2
2017-Jun-26 04:30N 39°33' W 072°28'917.5
2017-Jun-26 04:00N 39°26' W 072°21'1017.5
2017-Jun-26 03:25N 39°19' W 072°12'717.9
2017-Jun-26 03:01N 39°13' W 072°06'1018.2
2017-Jun-26 02:29N 39°06' W 071°57'1018.3
2017-Jun-26 01:56N 38°59' W 071°49'918.4
2017-Jun-26 01:27N 38°52' W 071°41'  
2017-Jun-22 23:49N 39°54' W 073°12'719.8
2017-Jun-22 23:29N 39°59' W 073°18'1119.6
2017-Jun-22 22:56N 40°07' W 073°27'919.3
2017-Jun-22 22:28N 40°14' W 073°35'918.6
2017-Jun-22 22:00N 40°21' W 073°42'815.4
2017-Jun-22 21:30N 40°26' W 073°50'714.3
2017-Jun-22 21:01N 40°30' W 073°57'11 1.3
2017-Jun-22 12:39N 40°40' W 074°04'0 0.0
2017-Jun-22 12:30N 40°40' W 074°04'0 0.0
2017-Jun-22 12:00N 40°40' W 074°04'0 0.0
2017-Jun-22 11:30N 40°40' W 074°04'0 0.0
2017-Jun-22 11:00N 40°40' W 074°04'1 1.6
2017-Jun-22 10:31N 40°39' W 074°03'611.5
2017-Jun-22 10:00N 40°34' W 074°02'714.8
2017-Jun-22 09:31N 40°29' W 073°54'613.0
2017-Jun-22 09:01N 40°26' W 073°47'815.7
2017-Jun-22 08:30N 40°21' W 073°38'918.1
2017-Jun-22 08:01N 40°16' W 073°29'918.0
2017-Jun-22 07:29N 40°10' W 073°19'917.9
2017-Jun-22 07:00N 40°05' W 073°10'917.9
2017-Jun-22 06:30N 39°59' W 073°02'  
2017-Jun-17 21:29N 40°26' W 073°48'713.9
2017-Jun-17 21:00N 40°30' W 073°56'  

Dump ship's entire track history